বাংলা English Search

Maritime Ports have been advised to hoist local cautionary signal no. three (R) three.

METAR

METAR VGHS 080300Z 11010KT 4000 HZ SCT015 BKN100 30/24 Q1001 NOSIG=